createdAt,value
2022-09-28T00:01:17.835Z,11.96
2022-09-28T00:03:47.229Z,11.85
2022-09-28T00:06:18.606Z,11.92
2022-09-28T00:08:46.530Z,11.96
2022-09-28T00:11:15.875Z,11.89
2022-09-28T00:13:46.058Z,11.80
2022-09-28T00:16:19.726Z,11.85
2022-09-28T00:18:47.715Z,11.84
2022-09-28T00:21:18.734Z,11.81
2022-09-28T00:24:05.207Z,11.77
2022-09-28T00:26:34.443Z,11.90
2022-09-28T00:29:03.030Z,11.89
2022-09-28T00:31:33.219Z,11.81
2022-09-28T00:34:02.064Z,11.80
2022-09-28T00:36:32.162Z,11.85
2022-09-28T00:39:03.895Z,11.78
2022-09-28T00:41:31.847Z,11.83
2022-09-28T00:44:24.260Z,11.88
2022-09-28T00:47:20.054Z,11.92
2022-09-28T00:49:54.335Z,12.01
2022-09-28T00:52:35.210Z,11.88
2022-09-28T00:55:06.534Z,11.86
2022-09-28T00:57:35.936Z,11.83
2022-09-28T01:00:04.827Z,11.87
2022-09-28T01:02:32.757Z,11.86
2022-09-28T01:05:04.145Z,11.70
2022-09-28T01:07:33.448Z,11.75
2022-09-28T01:10:01.520Z,11.58
2022-09-28T01:12:30.095Z,11.54
2022-09-28T01:14:58.924Z,11.63
2022-09-28T01:17:38.456Z,11.55
2022-09-28T01:20:42.561Z,11.38
2022-09-28T01:23:25.465Z,11.33
2022-09-28T01:26:34.026Z,11.40
2022-09-28T01:29:31.570Z,11.29
2022-09-28T01:32:16.830Z,11.27
2022-09-28T01:34:56.259Z,11.34
2022-09-28T01:37:32.370Z,11.21
2022-09-28T01:40:05.052Z,11.24
2022-09-28T01:42:38.021Z,11.21
2022-09-28T01:45:13.554Z,11.15
2022-09-28T01:47:43.425Z,11.04
2022-09-28T01:50:15.954Z,11.23
2022-09-28T01:52:56.809Z,11.16
2022-09-28T01:55:34.459Z,11.02
2022-09-28T01:58:22.080Z,11.10
2022-09-28T02:00:59.946Z,11.05
2022-09-28T02:03:37.598Z,11.05
2022-09-28T02:06:16.299Z,11.07
2022-09-28T02:08:57.830Z,11.00
2022-09-28T02:11:37.381Z,11.00
2022-09-28T02:14:10.310Z,11.03
2022-09-28T02:16:46.064Z,10.93
2022-09-28T02:19:21.339Z,10.96
2022-09-28T02:21:58.632Z,10.99
2022-09-28T02:24:40.562Z,10.97
2022-09-28T02:27:18.965Z,10.96
2022-09-28T02:29:47.148Z,10.89
2022-09-28T02:32:15.908Z,10.82
2022-09-28T02:34:44.559Z,10.83
2022-09-28T02:37:13.263Z,10.86
2022-09-28T02:39:41.050Z,10.93
2022-09-28T02:42:23.859Z,10.86
2022-09-28T02:45:25.126Z,10.97
2022-09-28T02:48:49.197Z,10.85
2022-09-28T02:51:46.169Z,10.82
2022-09-28T02:54:24.938Z,10.90
2022-09-28T02:57:07.505Z,10.88
2022-09-28T03:00:10.560Z,10.79
2022-09-28T03:02:42.618Z,10.70
2022-09-28T03:05:22.076Z,10.69
2022-09-28T03:08:06.822Z,10.77
2022-09-28T03:10:41.818Z,10.75
2022-09-28T03:13:11.238Z,10.76
2022-09-28T03:15:40.485Z,10.76
2022-09-28T03:18:08.224Z,10.79
2022-09-28T03:20:36.544Z,10.72
2022-09-28T03:25:53.093Z,10.81
2022-09-28T03:28:21.695Z,10.69
2022-09-28T03:30:50.677Z,10.81
2022-09-28T03:33:19.812Z,10.78
2022-09-28T03:35:52.203Z,10.73
2022-09-28T03:38:20.671Z,10.65
2022-09-28T03:40:59.128Z,10.66
2022-09-28T03:43:30.799Z,10.58
2022-09-28T03:46:01.879Z,10.53
2022-09-28T03:48:35.423Z,10.54
2022-09-28T03:51:05.789Z,10.54
2022-09-28T03:53:35.467Z,10.55
2022-09-28T03:56:07.024Z,10.58
2022-09-28T03:58:35.706Z,10.52
2022-09-28T04:01:17.541Z,10.56
2022-09-28T04:03:48.168Z,10.53
2022-09-28T04:06:16.254Z,10.58
2022-09-28T04:08:43.970Z,10.51
2022-09-28T04:11:12.512Z,10.52
2022-09-28T04:13:41.141Z,10.55
2022-09-28T04:16:12.083Z,10.58
2022-09-28T04:18:43.087Z,10.65
2022-09-28T04:21:45.905Z,10.61
2022-09-28T04:24:15.739Z,10.78
2022-09-28T04:26:43.532Z,10.81
2022-09-28T04:29:16.756Z,10.75
2022-09-28T04:31:56.214Z,10.84
2022-09-28T04:34:37.119Z,10.84
2022-09-28T04:37:06.918Z,10.74
2022-09-28T04:39:34.723Z,10.83
2022-09-28T04:42:02.796Z,10.87
2022-09-28T04:44:30.732Z,10.88
2022-09-28T04:47:06.368Z,10.89
2022-09-28T04:49:37.070Z,10.84
2022-09-28T04:52:28.293Z,10.81
2022-09-28T04:54:56.494Z,10.83
2022-09-28T04:57:25.648Z,10.73
2022-09-28T04:59:53.362Z,10.84
2022-09-28T05:02:21.260Z,10.84
2022-09-28T05:05:14.747Z,10.91
2022-09-28T05:08:11.874Z,10.82
2022-09-28T05:10:41.816Z,10.84
2022-09-28T05:13:11.400Z,10.82
2022-09-28T05:15:40.725Z,10.82
2022-09-28T05:18:09.590Z,10.92
2022-09-28T05:20:46.168Z,10.89
2022-09-28T05:23:15.500Z,10.98
2022-09-28T05:25:45.927Z,11.02
2022-09-28T05:28:29.109Z,10.97
2022-09-28T05:31:29.080Z,11.05
2022-09-28T05:34:13.595Z,11.02
2022-09-28T05:36:42.818Z,11.14
2022-09-28T05:39:10.589Z,11.04
2022-09-28T05:41:38.942Z,11.10
2022-09-28T05:44:06.750Z,11.07
2022-09-28T05:46:35.884Z,11.06
2022-09-28T05:49:03.855Z,11.12
2022-09-28T05:51:32.187Z,11.08
2022-09-28T05:54:04.827Z,11.24
2022-09-28T05:56:33.913Z,11.13
2022-09-28T05:59:06.472Z,11.09
2022-09-28T06:01:34.609Z,11.09
2022-09-28T06:04:03.489Z,11.16
2022-09-28T06:06:32.398Z,11.15
2022-09-28T06:09:00.099Z,11.12
2022-09-28T06:11:32.606Z,11.08
2022-09-28T06:14:05.307Z,11.11
2022-09-28T06:16:35.110Z,11.10
2022-09-28T06:19:02.917Z,11.03
2022-09-28T06:21:44.833Z,10.99
2022-09-28T06:24:12.891Z,10.91
2022-09-28T06:26:41.012Z,11.15
2022-09-28T06:29:09.332Z,11.19
2022-09-28T06:31:37.251Z,11.40
2022-09-28T06:34:05.011Z,11.52
2022-09-28T06:36:33.865Z,11.63
2022-09-28T06:39:01.607Z,11.59
2022-09-28T06:41:30.245Z,11.54
2022-09-28T06:44:03.703Z,11.42
2022-09-28T06:47:09.674Z,11.49
2022-09-28T06:50:16.096Z,11.36
2022-09-28T06:52:55.322Z,11.43
2022-09-28T06:55:50.232Z,11.54
2022-09-28T06:58:20.798Z,11.51
2022-09-28T07:00:52.513Z,11.68
2022-09-28T07:03:24.865Z,11.62
2022-09-28T07:05:58.642Z,11.64
2022-09-28T07:09:10.040Z,11.77
2022-09-28T07:12:00.471Z,11.91
2022-09-28T07:14:47.868Z,12.14
2022-09-28T07:17:17.211Z,12.49
2022-09-28T07:19:45.022Z,12.59
2022-09-28T07:22:18.477Z,12.90
2022-09-28T07:24:48.899Z,13.24
2022-09-28T07:27:39.722Z,13.42
2022-09-28T07:30:35.375Z,13.53
2022-09-28T07:33:17.228Z,13.78
2022-09-28T07:35:55.635Z,13.85
2022-09-28T07:38:28.067Z,13.93
2022-09-28T07:41:14.282Z,14.25
2022-09-28T07:43:49.808Z,14.46
2022-09-28T07:46:18.043Z,14.89
2022-09-28T07:48:55.940Z,15.68
2022-09-28T07:51:35.844Z,16.84
2022-09-28T07:54:18.931Z,17.91
2022-09-28T07:57:12.937Z,18.84
2022-09-28T08:00:15.046Z,20.22
2022-09-28T08:02:45.078Z,20.18
2022-09-28T08:05:17.557Z,19.22
2022-09-28T08:07:45.526Z,18.40
2022-09-28T08:10:14.261Z,18.38
2022-09-28T08:13:05.481Z,18.29
2022-09-28T08:15:42.735Z,17.57
2022-09-28T08:18:21.787Z,17.73
2022-09-28T08:21:11.432Z,18.46
2022-09-28T08:23:40.067Z,18.85
2022-09-28T08:26:12.075Z,19.34
2022-09-28T08:28:43.634Z,20.44
2022-09-28T08:31:31.130Z,22.43
2022-09-28T08:34:13.772Z,23.45
2022-09-28T08:37:02.134Z,22.53
2022-09-28T08:39:48.111Z,22.17
2022-09-28T08:42:41.379Z,21.74
2022-09-28T08:45:38.158Z,20.82
2022-09-28T08:49:13.515Z,20.31
2022-09-28T08:52:14.812Z,19.05
2022-09-28T08:55:30.272Z,18.78
2022-09-28T08:58:04.884Z,18.72
2022-09-28T09:00:49.395Z,19.24
2022-09-28T09:03:34.270Z,20.85
2022-09-28T09:06:36.158Z,23.00
2022-09-28T09:09:59.132Z,24.61
2022-09-28T09:12:36.925Z,24.86
2022-09-28T09:15:14.578Z,25.22
2022-09-28T09:18:22.555Z,26.23
2022-09-28T09:21:16.347Z,23.61
2022-09-28T09:24:04.637Z,21.68
2022-09-28T09:26:41.029Z,19.96
2022-09-28T09:29:31.670Z,19.70
2022-09-28T09:32:09.229Z,19.48
2022-09-28T09:34:46.156Z,19.08
2022-09-28T09:37:58.662Z,18.71
2022-09-28T09:41:16.123Z,18.62
2022-09-28T09:44:33.619Z,18.34
2022-09-28T09:47:43.090Z,18.05
2022-09-28T09:50:49.664Z,18.25
2022-09-28T09:53:20.991Z,18.57
2022-09-28T09:55:57.427Z,19.31
2022-09-28T09:58:42.579Z,20.14
2022-09-28T10:01:40.504Z,21.61
2022-09-28T10:04:33.938Z,21.44
2022-09-28T10:07:09.849Z,20.53
2022-09-28T10:09:47.829Z,19.70
2022-09-28T10:12:27.140Z,19.03
2022-09-28T10:14:56.091Z,18.54
2022-09-28T10:17:27.726Z,18.23
2022-09-28T10:20:16.160Z,18.08
2022-09-28T10:23:04.940Z,18.03
2022-09-28T10:25:37.512Z,17.98
2022-09-28T10:28:07.688Z,18.23
2022-09-28T10:30:42.077Z,18.10
2022-09-28T10:33:32.044Z,17.80
2022-09-28T10:36:02.012Z,17.97
2022-09-28T10:38:34.240Z,17.79
2022-09-28T10:41:12.206Z,17.66
2022-09-28T10:44:06.627Z,17.36
2022-09-28T10:47:00.979Z,16.99
2022-09-28T10:49:49.761Z,16.82
2022-09-28T10:52:41.708Z,16.64
2022-09-28T10:55:33.588Z,16.59
2022-09-28T10:58:17.460Z,16.65
2022-09-28T11:00:45.744Z,16.89
2022-09-28T11:03:28.038Z,16.88
2022-09-28T11:06:08.017Z,16.86
2022-09-28T11:08:42.181Z,16.96
2022-09-28T11:11:20.093Z,17.19
2022-09-28T11:14:03.764Z,17.13
2022-09-28T11:16:37.521Z,17.20
2022-09-28T11:19:22.137Z,17.14
2022-09-28T11:21:51.485Z,16.85
2022-09-28T11:24:26.125Z,16.96
2022-09-28T11:27:00.240Z,16.76
2022-09-28T11:29:44.301Z,16.45
2022-09-28T11:32:18.651Z,16.35
2022-09-28T11:35:07.396Z,16.39
2022-09-28T11:37:54.479Z,16.16
2022-09-28T11:41:11.144Z,16.41
2022-09-28T11:43:45.356Z,16.37
2022-09-28T11:46:35.125Z,16.49
2022-09-28T11:49:31.571Z,16.66
2022-09-28T11:52:08.605Z,17.34
2022-09-28T11:54:54.785Z,17.82
2022-09-28T11:57:28.652Z,17.69
2022-09-28T12:00:10.699Z,17.45
2022-09-28T12:03:09.483Z,16.76
2022-09-28T12:06:06.609Z,16.99
2022-09-28T12:08:41.668Z,16.96
2022-09-28T12:11:36.176Z,16.84
2022-09-28T12:14:40.854Z,16.79
2022-09-28T12:17:28.755Z,16.93
2022-09-28T12:20:14.199Z,16.62
2022-09-28T12:22:48.551Z,16.45
2022-09-28T12:25:21.229Z,16.28
2022-09-28T12:28:03.321Z,16.15
2022-09-28T12:30:37.426Z,16.20
2022-09-28T12:33:13.529Z,16.23
2022-09-28T12:35:56.818Z,16.07
2022-09-28T12:39:18.095Z,15.97
2022-09-28T12:41:58.804Z,15.97
2022-09-28T12:44:32.751Z,15.36
2022-09-28T12:47:09.683Z,14.73
2022-09-28T12:53:27.396Z,14.21
2022-09-28T12:56:11.695Z,13.99
2022-09-28T12:59:03.215Z,13.67
2022-09-28T13:01:52.797Z,13.48
2022-09-28T13:05:08.005Z,13.62
2022-09-28T13:07:59.523Z,14.10
2022-09-28T13:10:50.789Z,14.51
2022-09-28T13:13:48.258Z,14.89
2022-09-28T13:16:35.438Z,14.95
2022-09-28T13:19:16.920Z,14.82
2022-09-28T13:22:00.758Z,15.01
2022-09-28T13:24:35.184Z,14.91
2022-09-28T13:27:10.474Z,14.90
2022-09-28T13:29:40.834Z,14.79
2022-09-28T13:32:11.692Z,14.94
2022-09-28T13:34:40.544Z,14.90
2022-09-28T13:37:24.110Z,14.82
2022-09-28T13:39:59.482Z,14.79
2022-09-28T13:42:39.250Z,14.88
2022-09-28T13:45:22.465Z,14.95
2022-09-28T13:48:11.892Z,14.94
2022-09-28T13:51:14.840Z,14.81
2022-09-28T13:54:24.097Z,14.91
2022-09-28T13:57:13.609Z,14.94
2022-09-28T13:59:58.181Z,14.89
2022-09-28T14:03:13.289Z,15.02
2022-09-28T14:06:00.794Z,14.89
2022-09-28T14:08:38.477Z,14.72
2022-09-28T14:11:35.832Z,14.67
2022-09-28T14:14:13.878Z,14.39
2022-09-28T14:16:44.805Z,14.42
2022-09-28T14:19:33.988Z,14.49
2022-09-28T14:22:15.885Z,14.68
2022-09-28T14:25:02.578Z,14.56
2022-09-28T14:27:58.383Z,14.51
2022-09-28T14:30:35.462Z,14.67
2022-09-28T14:33:22.498Z,14.61
2022-09-28T14:35:56.324Z,14.46
2022-09-28T14:38:54.725Z,14.24
2022-09-28T14:41:41.964Z,14.14
2022-09-28T14:44:16.555Z,14.19
2022-09-28T14:46:46.355Z,14.45
2022-09-28T14:49:20.255Z,14.55
2022-09-28T14:51:48.074Z,14.60
2022-09-28T14:54:23.738Z,14.70
2022-09-28T14:56:57.075Z,14.62
2022-09-28T14:59:39.023Z,14.50
2022-09-28T15:02:20.563Z,14.31
2022-09-28T15:04:52.021Z,14.13
2022-09-28T15:07:43.468Z,14.08
2022-09-28T15:10:28.264Z,13.94
2022-09-28T15:12:57.236Z,13.86
2022-09-28T15:15:50.517Z,13.77
2022-09-28T15:18:36.572Z,13.71
2022-09-28T15:21:04.585Z,13.76
2022-09-28T15:23:44.161Z,13.80
2022-09-28T15:26:24.358Z,13.69
2022-09-28T15:28:52.250Z,13.68
2022-09-28T15:31:23.181Z,13.63
2022-09-28T15:34:09.975Z,13.63
2022-09-28T15:36:46.457Z,13.61
2022-09-28T15:39:32.070Z,13.47
2022-09-28T15:42:02.257Z,13.31
2022-09-28T15:44:36.587Z,13.28
2022-09-28T15:47:10.954Z,13.23
2022-09-28T15:49:43.421Z,13.23
2022-09-28T15:52:41.847Z,13.08
2022-09-28T15:55:29.388Z,13.04
2022-09-28T15:58:18.813Z,13.11
2022-09-28T16:00:48.689Z,12.86
2022-09-28T16:03:28.290Z,12.64
2022-09-28T16:05:58.786Z,12.47
2022-09-28T16:08:46.606Z,12.37
2022-09-28T16:11:14.305Z,12.20
2022-09-28T16:14:05.974Z,12.16
2022-09-28T16:16:46.636Z,12.03
2022-09-28T16:19:24.174Z,11.93
2022-09-28T16:21:53.571Z,11.83
2022-09-28T16:24:29.674Z,11.84
2022-09-28T16:27:03.722Z,11.79
2022-09-28T16:29:40.322Z,11.82
2022-09-28T16:32:26.597Z,11.76
2022-09-28T16:35:18.691Z,11.59
2022-09-28T16:37:48.794Z,11.53
2022-09-28T16:40:16.861Z,11.41
2022-09-28T16:42:49.063Z,11.37
2022-09-28T16:45:20.463Z,11.26
2022-09-28T16:47:52.909Z,11.26
2022-09-28T16:50:22.345Z,11.36
2022-09-28T16:53:19.586Z,11.33
2022-09-28T16:55:49.762Z,11.28
2022-09-28T16:58:18.636Z,11.34
2022-09-28T17:00:46.311Z,11.30
2022-09-28T17:03:20.981Z,11.24
2022-09-28T17:05:49.444Z,11.17
2022-09-28T17:08:19.449Z,11.26
2022-09-28T17:11:15.824Z,11.20
2022-09-28T17:13:43.379Z,11.23
2022-09-28T17:16:14.844Z,11.23
2022-09-28T17:18:42.855Z,11.28
2022-09-28T17:21:20.631Z,11.33
2022-09-28T17:23:50.050Z,11.28
2022-09-28T17:26:24.279Z,11.44
2022-09-28T17:28:53.071Z,11.54
2022-09-28T17:31:21.045Z,11.52
2022-09-28T17:33:48.795Z,11.59
2022-09-28T17:36:18.878Z,11.58
2022-09-28T17:38:47.826Z,11.52
2022-09-28T17:41:20.955Z,11.51
2022-09-28T17:43:50.103Z,11.61
2022-09-28T17:46:25.979Z,11.50
2022-09-28T17:48:54.750Z,11.47
2022-09-28T17:51:23.773Z,11.44
2022-09-28T17:53:52.657Z,11.47
2022-09-28T17:56:20.537Z,11.46
2022-09-28T17:58:48.410Z,11.38
2022-09-28T18:01:16.693Z,11.42
2022-09-28T18:03:44.734Z,11.37
2022-09-28T18:06:19.310Z,11.38
2022-09-28T18:08:47.363Z,11.34
2022-09-28T18:11:17.332Z,11.32
2022-09-28T18:13:46.138Z,11.38
2022-09-28T18:16:14.779Z,11.36
2022-09-28T18:18:42.648Z,11.38
2022-09-28T18:21:10.391Z,11.39
2022-09-28T18:23:39.680Z,11.41
2022-09-28T18:26:12.309Z,11.32
2022-09-28T18:28:40.716Z,11.33
2022-09-28T18:31:10.039Z,11.22
2022-09-28T18:33:39.332Z,11.20
2022-09-28T18:36:07.989Z,11.26
2022-09-28T18:38:36.864Z,11.25
2022-09-28T18:41:08.641Z,11.26
2022-09-28T18:43:37.121Z,11.21
2022-09-28T18:46:11.851Z,11.30
2022-09-28T18:48:43.955Z,11.21
2022-09-28T18:51:12.754Z,11.25
2022-09-28T18:53:41.220Z,11.41
2022-09-28T18:56:11.637Z,11.36
2022-09-28T18:58:41.402Z,11.30
2022-09-28T19:01:30.842Z,11.25
2022-09-28T19:04:04.756Z,11.22
2022-09-28T19:06:34.538Z,11.19
2022-09-28T19:09:02.632Z,11.13
2022-09-28T19:11:30.351Z,11.14
2022-09-28T19:13:58.229Z,11.24
2022-09-28T19:16:29.019Z,11.12
2022-09-28T19:19:02.842Z,11.11
2022-09-28T19:21:31.364Z,11.11
2022-09-28T19:24:03.577Z,11.13
2022-09-28T19:26:33.001Z,11.21
2022-09-28T19:29:02.823Z,11.16
2022-09-28T19:31:31.115Z,11.13
2022-09-28T19:33:59.187Z,11.09
2022-09-28T19:36:28.680Z,11.10
2022-09-28T19:38:58.613Z,11.05
2022-09-28T19:41:43.449Z,10.96
2022-09-28T19:44:19.474Z,10.94
2022-09-28T19:46:47.433Z,10.89
2022-09-28T19:49:19.711Z,10.84
2022-09-28T19:54:38.199Z,10.66
2022-09-28T19:57:08.657Z,10.64
2022-09-28T19:59:37.574Z,10.68
2022-09-28T20:02:07.469Z,10.61
2022-09-28T20:04:35.364Z,10.60
2022-09-28T20:07:04.323Z,10.69
2022-09-28T20:09:33.344Z,10.87
2022-09-28T20:12:01.584Z,10.95
2022-09-28T20:14:33.090Z,10.90
2022-09-28T20:17:04.438Z,10.82
2022-09-28T20:19:32.723Z,10.78
2022-09-28T20:22:02.874Z,10.79
2022-09-28T20:24:32.030Z,10.89
2022-09-28T20:27:01.330Z,10.77
2022-09-28T20:29:31.627Z,10.58
2022-09-28T20:32:00.438Z,10.44
2022-09-28T20:34:28.269Z,10.34
2022-09-28T20:36:56.170Z,10.36
2022-09-28T20:39:24.104Z,10.30
2022-09-28T20:41:51.968Z,10.19
2022-09-28T20:44:19.967Z,10.06
2022-09-28T20:46:51.287Z,9.98
2022-09-28T20:49:19.225Z,9.80
2022-09-28T20:51:47.076Z,9.58
2022-09-28T20:54:14.986Z,9.39
2022-09-28T20:56:42.862Z,9.32
2022-09-28T20:59:12.527Z,9.28
2022-09-28T21:01:40.889Z,9.15
2022-09-28T21:04:10.520Z,9.06
2022-09-28T21:06:40.977Z,8.99
2022-09-28T21:09:10.382Z,8.89
2022-09-28T21:11:39.493Z,8.89
2022-09-28T21:14:10.334Z,8.85
2022-09-28T21:16:38.881Z,8.74
2022-09-28T21:19:06.660Z,8.65
2022-09-28T21:21:34.638Z,8.63
2022-09-28T21:24:03.636Z,8.76
2022-09-28T21:26:32.110Z,8.71
2022-09-28T21:29:02.726Z,8.66
2022-09-28T21:31:45.619Z,8.66
2022-09-28T21:34:22.263Z,8.65
2022-09-28T21:36:51.345Z,8.63
2022-09-28T21:39:20.222Z,8.59
2022-09-28T21:41:48.294Z,8.57
2022-09-28T21:44:16.252Z,8.49
2022-09-28T21:46:44.118Z,8.49
2022-09-28T21:49:12.670Z,8.47
2022-09-28T21:51:40.652Z,8.45
2022-09-28T21:54:08.796Z,8.52
2022-09-28T21:56:36.516Z,8.60
2022-09-28T21:59:04.678Z,8.73
2022-09-28T22:01:32.535Z,8.65
2022-09-28T22:04:00.376Z,8.80
2022-09-28T22:06:28.456Z,8.77
2022-09-28T22:08:57.337Z,8.74
2022-09-28T22:11:27.068Z,8.65
2022-09-28T22:13:58.046Z,8.51
2022-09-28T22:16:30.550Z,8.53
2022-09-28T22:18:59.214Z,8.53
2022-09-28T22:21:29.767Z,8.36
2022-09-28T22:24:02.483Z,8.23
2022-09-28T22:26:32.350Z,8.29
2022-09-28T22:29:02.902Z,8.11
2022-09-28T22:31:33.547Z,8.02
2022-09-28T22:34:02.407Z,7.94
2022-09-28T22:36:30.508Z,7.84
2022-09-28T22:38:59.755Z,7.84
2022-09-28T22:41:28.402Z,7.77
2022-09-28T22:43:56.365Z,7.72
2022-09-28T22:46:26.991Z,7.71
2022-09-28T22:48:59.101Z,7.74
2022-09-28T22:51:30.094Z,7.81
2022-09-28T22:53:58.490Z,8.17
2022-09-28T22:56:26.432Z,8.27
2022-09-28T22:58:54.677Z,8.38
2022-09-28T23:01:26.081Z,8.58
2022-09-28T23:03:55.166Z,8.57
2022-09-28T23:06:26.204Z,8.60
2022-09-28T23:08:54.106Z,8.64
2022-09-28T23:11:21.983Z,8.83
2022-09-28T23:13:54.857Z,8.95
2022-09-28T23:16:25.507Z,8.85
2022-09-28T23:18:55.213Z,8.99
2022-09-28T23:21:25.418Z,9.17
2022-09-28T23:23:58.897Z,9.08
2022-09-28T23:26:29.817Z,9.03
2022-09-28T23:28:58.308Z,9.08
2022-09-28T23:31:28.844Z,9.15
2022-09-28T23:34:05.509Z,9.16
2022-09-28T23:36:34.197Z,9.10
2022-09-28T23:39:02.267Z,9.23
2022-09-28T23:41:30.432Z,9.15
2022-09-28T23:43:58.315Z,9.16
2022-09-28T23:46:26.316Z,9.16
2022-09-28T23:48:54.148Z,9.16
2022-09-28T23:51:22.221Z,9.19
2022-09-28T23:53:50.595Z,9.27
2022-09-28T23:56:18.309Z,9.25
2022-09-28T23:58:45.983Z,9.31
